sensor_id;sensor_type;location;lat;lon;timestamp;temperature;humidity
18898;DHT22;9581;49.484;8.556;2023-04-06T00:00:37;4.50;99.90
18898;DHT22;9581;49.484;8.556;2023-04-06T00:03:04;4.50;99.50
18898;DHT22;9581;49.484;8.556;2023-04-06T00:05:31;4.80;99.60
18898;DHT22;9581;49.484;8.556;2023-04-06T00:07:58;4.50;99.80
18898;DHT22;9581;49.484;8.556;2023-04-06T00:10:26;4.70;99.90
18898;DHT22;9581;49.484;8.556;2023-04-06T00:12:54;4.90;99.90
18898;DHT22;9581;49.484;8.556;2023-04-06T00:15:22;4.70;99.90
18898;DHT22;9581;49.484;8.556;2023-04-06T00:17:49;4.90;99.90
18898;DHT22;9581;49.484;8.556;2023-04-06T00:20:16;4.80;99.90
18898;DHT22;9581;49.484;8.556;2023-04-06T00:22:43;5.20;99.30
18898;DHT22;9581;49.484;8.556;2023-04-06T00:25:10;5.20;98.30
18898;DHT22;9581;49.484;8.556;2023-04-06T00:27:38;4.60;98.90
18898;DHT22;9581;49.484;8.556;2023-04-06T00:30:08;4.60;98.90
18898;DHT22;9581;49.484;8.556;2023-04-06T00:32:35;4.40;98.80
18898;DHT22;9581;49.484;8.556;2023-04-06T00:35:02;4.60;98.40
18898;DHT22;9581;49.484;8.556;2023-04-06T00:37:29;5.00;98.20
18898;DHT22;9581;49.484;8.556;2023-04-06T00:39:56;4.90;97.60
18898;DHT22;9581;49.484;8.556;2023-04-06T00:42:23;5.00;97.30
18898;DHT22;9581;49.484;8.556;2023-04-06T00:44:52;4.70;97.20
18898;DHT22;9581;49.484;8.556;2023-04-06T00:47:21;4.70;98.50
18898;DHT22;9581;49.484;8.556;2023-04-06T00:49:48;4.90;98.60
18898;DHT22;9581;49.484;8.556;2023-04-06T00:52:15;5.20;98.60
18898;DHT22;9581;49.484;8.556;2023-04-06T00:54:42;5.10;98.60
18898;DHT22;9581;49.484;8.556;2023-04-06T00:57:10;4.90;99.20
18898;DHT22;9581;49.484;8.556;2023-04-06T00:59:37;4.40;99.90
18898;DHT22;9581;49.484;8.556;2023-04-06T01:02:04;4.40;99.90
18898;DHT22;9581;49.484;8.556;2023-04-06T01:04:33;4.10;99.90
18898;DHT22;9581;49.484;8.556;2023-04-06T01:07:00;4.30;99.90
18898;DHT22;9581;49.484;8.556;2023-04-06T01:09:27;4.10;99.90
18898;DHT22;9581;49.484;8.556;2023-04-06T01:11:55;4.70;99.90
18898;DHT22;9581;49.484;8.556;2023-04-06T01:14:22;4.70;99.90
18898;DHT22;9581;49.484;8.556;2023-04-06T01:16:49;4.10;99.90
18898;DHT22;9581;49.484;8.556;2023-04-06T01:19:16;3.70;99.90
18898;DHT22;9581;49.484;8.556;2023-04-06T01:21:44;4.00;99.90
18898;DHT22;9581;49.484;8.556;2023-04-06T01:24:13;3.80;99.90
18898;DHT22;9581;49.484;8.556;2023-04-06T01:26:40;4.20;99.90
18898;DHT22;9581;49.484;8.556;2023-04-06T01:29:07;4.40;99.90
18898;DHT22;9581;49.484;8.556;2023-04-06T01:31:34;3.90;99.90
18898;DHT22;9581;49.484;8.556;2023-04-06T01:34:01;3.60;99.90
18898;DHT22;9581;49.484;8.556;2023-04-06T01:36:28;3.70;99.90
18898;DHT22;9581;49.484;8.556;2023-04-06T01:38:55;4.00;99.90
18898;DHT22;9581;49.484;8.556;2023-04-06T01:41:23;4.00;99.90
18898;DHT22;9581;49.484;8.556;2023-04-06T01:43:50;4.10;99.90
18898;DHT22;9581;49.484;8.556;2023-04-06T01:46:20;4.30;99.90
18898;DHT22;9581;49.484;8.556;2023-04-06T01:48:46;4.10;99.90
18898;DHT22;9581;49.484;8.556;2023-04-06T01:51:14;3.80;99.90
18898;DHT22;9581;49.484;8.556;2023-04-06T01:53:41;3.50;99.90
18898;DHT22;9581;49.484;8.556;2023-04-06T01:56:08;3.40;99.90
18898;DHT22;9581;49.484;8.556;2023-04-06T01:58:36;3.70;99.90
18898;DHT22;9581;49.484;8.556;2023-04-06T02:01:03;4.20;99.90
18898;DHT22;9581;49.484;8.556;2023-04-06T02:03:30;3.90;99.90
18898;DHT22;9581;49.484;8.556;2023-04-06T02:05:57;4.00;99.90
18898;DHT22;9581;49.484;8.556;2023-04-06T02:08:24;4.10;99.90
18898;DHT22;9581;49.484;8.556;2023-04-06T02:10:51;4.30;99.90
18898;DHT22;9581;49.484;8.556;2023-04-06T02:13:18;4.20;99.90
18898;DHT22;9581;49.484;8.556;2023-04-06T02:15:46;4.30;99.90
18898;DHT22;9581;49.484;8.556;2023-04-06T02:18:13;4.30;99.90
18898;DHT22;9581;49.484;8.556;2023-04-06T02:20:40;4.30;99.90
18898;DHT22;9581;49.484;8.556;2023-04-06T02:23:07;3.70;99.90
18898;DHT22;9581;49.484;8.556;2023-04-06T02:25:34;3.20;99.90
18898;DHT22;9581;49.484;8.556;2023-04-06T02:28:01;3.00;99.90
18898;DHT22;9581;49.484;8.556;2023-04-06T02:30:28;3.00;99.90
18898;DHT22;9581;49.484;8.556;2023-04-06T02:32:58;2.90;99.90
18898;DHT22;9581;49.484;8.556;2023-04-06T02:35:25;2.90;99.90
18898;DHT22;9581;49.484;8.556;2023-04-06T02:37:52;2.90;99.90
18898;DHT22;9581;49.484;8.556;2023-04-06T02:40:19;2.90;99.90
18898;DHT22;9581;49.484;8.556;2023-04-06T02:42:46;3.40;99.90
18898;DHT22;9581;49.484;8.556;2023-04-06T02:45:13;3.40;99.90
18898;DHT22;9581;49.484;8.556;2023-04-06T02:47:41;3.50;99.90
18898;DHT22;9581;49.484;8.556;2023-04-06T02:50:10;3.40;99.90
18898;DHT22;9581;49.484;8.556;2023-04-06T02:52:37;3.60;99.90
18898;DHT22;9581;49.484;8.556;2023-04-06T02:55:05;3.90;99.90
18898;DHT22;9581;49.484;8.556;2023-04-06T02:57:33;4.10;99.90
18898;DHT22;9581;49.484;8.556;2023-04-06T03:00:00;3.50;99.90
18898;DHT22;9581;49.484;8.556;2023-04-06T03:02:27;3.10;99.90
18898;DHT22;9581;49.484;8.556;2023-04-06T03:04:53;3.00;99.90
18898;DHT22;9581;49.484;8.556;2023-04-06T03:07:22;2.90;99.90
18898;DHT22;9581;49.484;8.556;2023-04-06T03:09:49;3.20;99.90
18898;DHT22;9581;49.484;8.556;2023-04-06T03:12:16;3.60;99.90
18898;DHT22;9581;49.484;8.556;2023-04-06T03:14:43;3.90;99.90
18898;DHT22;9581;49.484;8.556;2023-04-06T03:17:10;3.50;99.90
18898;DHT22;9581;49.484;8.556;2023-04-06T03:19:46;3.40;99.90
18898;DHT22;9581;49.484;8.556;2023-04-06T03:22:13;3.00;99.90
18898;DHT22;9581;49.484;8.556;2023-04-06T03:24:42;3.40;99.90
18898;DHT22;9581;49.484;8.556;2023-04-06T03:27:08;3.50;99.90
18898;DHT22;9581;49.484;8.556;2023-04-06T03:29:35;3.20;99.90
18898;DHT22;9581;49.484;8.556;2023-04-06T03:32:03;3.00;99.90
18898;DHT22;9581;49.484;8.556;2023-04-06T03:34:30;2.80;99.90
18898;DHT22;9581;49.484;8.556;2023-04-06T03:36:57;2.90;99.90
18898;DHT22;9581;49.484;8.556;2023-04-06T03:39:24;3.10;99.90
18898;DHT22;9581;49.484;8.556;2023-04-06T03:41:52;3.20;99.90
18898;DHT22;9581;49.484;8.556;2023-04-06T03:44:19;3.50;99.90
18898;DHT22;9581;49.484;8.556;2023-04-06T03:46:46;3.10;99.90
18898;DHT22;9581;49.484;8.556;2023-04-06T03:49:13;3.40;99.90
18898;DHT22;9581;49.484;8.556;2023-04-06T03:51:40;3.00;99.90
18898;DHT22;9581;49.484;8.556;2023-04-06T03:54:07;2.80;99.90
18898;DHT22;9581;49.484;8.556;2023-04-06T03:56:34;2.50;99.90
18898;DHT22;9581;49.484;8.556;2023-04-06T03:59:02;2.80;99.90
18898;DHT22;9581;49.484;8.556;2023-04-06T04:01:29;2.90;99.90
18898;DHT22;9581;49.484;8.556;2023-04-06T04:03:56;2.70;99.90
18898;DHT22;9581;49.484;8.556;2023-04-06T04:06:23;2.80;99.90
18898;DHT22;9581;49.484;8.556;2023-04-06T04:08:50;3.10;99.90
18898;DHT22;9581;49.484;8.556;2023-04-06T04:11:17;2.80;99.90
18898;DHT22;9581;49.484;8.556;2023-04-06T04:13:44;2.80;99.90
18898;DHT22;9581;49.484;8.556;2023-04-06T04:16:12;2.80;99.90
18898;DHT22;9581;49.484;8.556;2023-04-06T04:18:39;2.90;99.90
18898;DHT22;9581;49.484;8.556;2023-04-06T04:21:09;2.90;99.90
18898;DHT22;9581;49.484;8.556;2023-04-06T04:23:35;2.60;99.90
18898;DHT22;9581;49.484;8.556;2023-04-06T04:26:02;2.80;99.90
18898;DHT22;9581;49.484;8.556;2023-04-06T04:28:29;3.40;99.90
18898;DHT22;9581;49.484;8.556;2023-04-06T04:30:56;3.60;99.90
18898;DHT22;9581;49.484;8.556;2023-04-06T04:33:24;3.60;99.90
18898;DHT22;9581;49.484;8.556;2023-04-06T04:35:51;3.60;99.90
18898;DHT22;9581;49.484;8.556;2023-04-06T04:38:18;3.40;99.90
18898;DHT22;9581;49.484;8.556;2023-04-06T04:40:46;3.70;99.90
18898;DHT22;9581;49.484;8.556;2023-04-06T04:43:12;4.10;99.90
18898;DHT22;9581;49.484;8.556;2023-04-06T04:45:40;3.70;99.90
18898;DHT22;9581;49.484;8.556;2023-04-06T04:48:07;4.00;99.90
18898;DHT22;9581;49.484;8.556;2023-04-06T04:50:35;4.40;99.90
18898;DHT22;9581;49.484;8.556;2023-04-06T04:53:02;4.80;99.90
18898;DHT22;9581;49.484;8.556;2023-04-06T04:55:31;4.90;99.90
18898;DHT22;9581;49.484;8.556;2023-04-06T04:57:58;4.90;99.90
18898;DHT22;9581;49.484;8.556;2023-04-06T05:00:25;5.10;99.90
18898;DHT22;9581;49.484;8.556;2023-04-06T05:02:52;5.00;99.90
18898;DHT22;9581;49.484;8.556;2023-04-06T05:05:19;4.50;99.90
18898;DHT22;9581;49.484;8.556;2023-04-06T05:07:47;4.00;99.90
18898;DHT22;9581;49.484;8.556;2023-04-06T05:10:14;3.60;99.90
18898;DHT22;9581;49.484;8.556;2023-04-06T05:12:41;3.50;99.90
18898;DHT22;9581;49.484;8.556;2023-04-06T05:15:09;3.30;99.90
18898;DHT22;9581;49.484;8.556;2023-04-06T05:17:36;3.80;99.90
18898;DHT22;9581;49.484;8.556;2023-04-06T05:20:04;4.10;99.90
18898;DHT22;9581;49.484;8.556;2023-04-06T05:22:31;4.50;99.90
18898;DHT22;9581;49.484;8.556;2023-04-06T05:25:00;4.60;99.90
18898;DHT22;9581;49.484;8.556;2023-04-06T05:27:27;4.80;99.90
18898;DHT22;9581;49.484;8.556;2023-04-06T05:29:55;5.00;99.90
18898;DHT22;9581;49.484;8.556;2023-04-06T05:32:22;4.90;99.90
18898;DHT22;9581;49.484;8.556;2023-04-06T05:34:50;4.70;99.90
18898;DHT22;9581;49.484;8.556;2023-04-06T05:37:17;4.80;99.90
18898;DHT22;9581;49.484;8.556;2023-04-06T05:39:44;5.00;99.90
18898;DHT22;9581;49.484;8.556;2023-04-06T05:42:12;4.90;99.90
18898;DHT22;9581;49.484;8.556;2023-04-06T05:44:39;4.70;99.90
18898;DHT22;9581;49.484;8.556;2023-04-06T05:47:06;4.70;99.90
18898;DHT22;9581;49.484;8.556;2023-04-06T05:49:33;4.80;99.90
18898;DHT22;9581;49.484;8.556;2023-04-06T05:52:00;4.90;99.90
18898;DHT22;9581;49.484;8.556;2023-04-06T05:54:27;5.10;99.90
18898;DHT22;9581;49.484;8.556;2023-04-06T05:56:53;5.10;99.90
18898;DHT22;9581;49.484;8.556;2023-04-06T05:59:22;5.00;99.90
18898;DHT22;9581;49.484;8.556;2023-04-06T06:01:49;5.30;99.90
18898;DHT22;9581;49.484;8.556;2023-04-06T06:04:16;5.30;99.90
18898;DHT22;9581;49.484;8.556;2023-04-06T06:06:43;5.40;99.90
18898;DHT22;9581;49.484;8.556;2023-04-06T06:09:10;5.30;99.90
18898;DHT22;9581;49.484;8.556;2023-04-06T06:11:37;4.80;99.90
18898;DHT22;9581;49.484;8.556;2023-04-06T06:14:04;5.00;99.90
18898;DHT22;9581;49.484;8.556;2023-04-06T06:16:32;4.50;99.90
18898;DHT22;9581;49.484;8.556;2023-04-06T06:18:59;4.40;99.90
18898;DHT22;9581;49.484;8.556;2023-04-06T06:21:26;4.50;99.90
18898;DHT22;9581;49.484;8.556;2023-04-06T06:23:53;5.10;99.90
18898;DHT22;9581;49.484;8.556;2023-04-06T06:26:20;5.40;99.90
18898;DHT22;9581;49.484;8.556;2023-04-06T06:28:47;5.50;99.90
18898;DHT22;9581;49.484;8.556;2023-04-06T06:31:14;5.80;99.90
18898;DHT22;9581;49.484;8.556;2023-04-06T06:33:43;5.80;99.90
18898;DHT22;9581;49.484;8.556;2023-04-06T06:36:10;5.30;99.90
18898;DHT22;9581;49.484;8.556;2023-04-06T06:38:37;5.30;99.90
18898;DHT22;9581;49.484;8.556;2023-04-06T06:41:04;5.20;99.90
18898;DHT22;9581;49.484;8.556;2023-04-06T06:43:31;5.80;99.90
18898;DHT22;9581;49.484;8.556;2023-04-06T06:45:58;6.10;99.90
18898;DHT22;9581;49.484;8.556;2023-04-06T06:48:25;6.20;99.90
18898;DHT22;9581;49.484;8.556;2023-04-06T06:50:54;6.40;99.90
18898;DHT22;9581;49.484;8.556;2023-04-06T06:53:26;6.50;99.90
18898;DHT22;9581;49.484;8.556;2023-04-06T06:55:57;6.40;99.90
18898;DHT22;9581;49.484;8.556;2023-04-06T06:58:23;6.30;99.90
18898;DHT22;9581;49.484;8.556;2023-04-06T07:00:50;6.60;99.90
18898;DHT22;9581;49.484;8.556;2023-04-06T07:03:17;6.90;99.80
18898;DHT22;9581;49.484;8.556;2023-04-06T07:05:47;7.00;98.90
18898;DHT22;9581;49.484;8.556;2023-04-06T07:08:20;7.10;98.60
18898;DHT22;9581;49.484;8.556;2023-04-06T07:10:47;7.20;98.40
18898;DHT22;9581;49.484;8.556;2023-04-06T07:13:15;7.30;98.60
18898;DHT22;9581;49.484;8.556;2023-04-06T07:15:47;7.30;97.80
18898;DHT22;9581;49.484;8.556;2023-04-06T07:18:14;7.40;97.70
18898;DHT22;9581;49.484;8.556;2023-04-06T07:20:41;7.40;97.80
18898;DHT22;9581;49.484;8.556;2023-04-06T07:23:08;7.50;97.60
18898;DHT22;9581;49.484;8.556;2023-04-06T07:25:36;7.70;97.20
18898;DHT22;9581;49.484;8.556;2023-04-06T07:28:03;7.70;96.70
18898;DHT22;9581;49.484;8.556;2023-04-06T07:30:31;7.90;96.90
18898;DHT22;9581;49.484;8.556;2023-04-06T07:32:58;7.90;96.70
18898;DHT22;9581;49.484;8.556;2023-04-06T07:35:26;7.90;95.80
18898;DHT22;9581;49.484;8.556;2023-04-06T07:37:54;7.50;96.60
18898;DHT22;9581;49.484;8.556;2023-04-06T07:40:21;7.80;96.50
18898;DHT22;9581;49.484;8.556;2023-04-06T07:42:49;8.00;96.80
18898;DHT22;9581;49.484;8.556;2023-04-06T07:45:16;8.30;96.00
18898;DHT22;9581;49.484;8.556;2023-04-06T07:47:43;8.30;96.00
18898;DHT22;9581;49.484;8.556;2023-04-06T07:50:10;8.60;96.00
18898;DHT22;9581;49.484;8.556;2023-04-06T07:52:38;8.80;95.50
18898;DHT22;9581;49.484;8.556;2023-04-06T07:55:05;8.90;94.50
18898;DHT22;9581;49.484;8.556;2023-04-06T07:57:32;9.00;94.30
18898;DHT22;9581;49.484;8.556;2023-04-06T08:00:01;8.90;93.90
18898;DHT22;9581;49.484;8.556;2023-04-06T08:02:29;9.10;94.30
18898;DHT22;9581;49.484;8.556;2023-04-06T08:04:56;9.30;93.70
18898;DHT22;9581;49.484;8.556;2023-04-06T08:07:23;9.30;93.40
18898;DHT22;9581;49.484;8.556;2023-04-06T08:09:51;9.60;93.00
18898;DHT22;9581;49.484;8.556;2023-04-06T08:12:18;9.70;92.90
18898;DHT22;9581;49.484;8.556;2023-04-06T08:14:45;9.90;92.20
18898;DHT22;9581;49.484;8.556;2023-04-06T08:17:13;9.60;92.40
18898;DHT22;9581;49.484;8.556;2023-04-06T08:19:42;9.70;93.00
18898;DHT22;9581;49.484;8.556;2023-04-06T08:22:09;10.10;91.80
18898;DHT22;9581;49.484;8.556;2023-04-06T08:24:36;10.10;91.80
18898;DHT22;9581;49.484;8.556;2023-04-06T08:27:03;9.80;92.80
18898;DHT22;9581;49.484;8.556;2023-04-06T08:29:30;9.90;92.00
18898;DHT22;9581;49.484;8.556;2023-04-06T08:31:56;10.30;90.70
18898;DHT22;9581;49.484;8.556;2023-04-06T08:34:25;9.80;91.00
18898;DHT22;9581;49.484;8.556;2023-04-06T08:36:54;10.30;91.00
18898;DHT22;9581;49.484;8.556;2023-04-06T08:39:21;10.60;90.00
18898;DHT22;9581;49.484;8.556;2023-04-06T08:41:51;10.70;89.20
18898;DHT22;9581;49.484;8.556;2023-04-06T08:44:22;10.90;90.30
18898;DHT22;9581;49.484;8.556;2023-04-06T08:46:50;10.70;90.60
18898;DHT22;9581;49.484;8.556;2023-04-06T08:49:18;11.20;90.10
18898;DHT22;9581;49.484;8.556;2023-04-06T08:51:47;11.30;90.30
18898;DHT22;9581;49.484;8.556;2023-04-06T08:54:14;11.20;91.00
18898;DHT22;9581;49.484;8.556;2023-04-06T08:56:41;10.80;90.50
18898;DHT22;9581;49.484;8.556;2023-04-06T08:59:09;11.20;90.00
18898;DHT22;9581;49.484;8.556;2023-04-06T09:01:39;11.20;87.60
18898;DHT22;9581;49.484;8.556;2023-04-06T09:04:07;11.30;88.40
18898;DHT22;9581;49.484;8.556;2023-04-06T09:06:36;11.70;87.30
18898;DHT22;9581;49.484;8.556;2023-04-06T09:09:05;11.40;87.10
18898;DHT22;9581;49.484;8.556;2023-04-06T09:11:42;11.60;87.40
18898;DHT22;9581;49.484;8.556;2023-04-06T09:14:09;11.30;86.70
18898;DHT22;9581;49.484;8.556;2023-04-06T09:16:39;11.10;85.90
18898;DHT22;9581;49.484;8.556;2023-04-06T09:19:06;11.60;86.10
18898;DHT22;9581;49.484;8.556;2023-04-06T09:21:33;12.10;85.20
18898;DHT22;9581;49.484;8.556;2023-04-06T09:24:01;12.20;85.50
18898;DHT22;9581;49.484;8.556;2023-04-06T09:26:30;12.30;83.70
18898;DHT22;9581;49.484;8.556;2023-04-06T09:28:59;12.40;82.90
18898;DHT22;9581;49.484;8.556;2023-04-06T09:31:27;12.30;82.40
18898;DHT22;9581;49.484;8.556;2023-04-06T09:33:56;12.40;80.90
18898;DHT22;9581;49.484;8.556;2023-04-06T09:36:30;12.50;81.00
18898;DHT22;9581;49.484;8.556;2023-04-06T09:39:00;12.40;80.50
18898;DHT22;9581;49.484;8.556;2023-04-06T09:41:30;12.60;79.80
18898;DHT22;9581;49.484;8.556;2023-04-06T09:44:04;12.70;78.80
18898;DHT22;9581;49.484;8.556;2023-04-06T09:46:33;12.80;79.20
18898;DHT22;9581;49.484;8.556;2023-04-06T09:49:01;12.30;76.80
18898;DHT22;9581;49.484;8.556;2023-04-06T09:51:30;12.70;78.60
18898;DHT22;9581;49.484;8.556;2023-04-06T09:53:59;12.90;78.40
18898;DHT22;9581;49.484;8.556;2023-04-06T09:56:33;13.20;78.10
18898;DHT22;9581;49.484;8.556;2023-04-06T09:59:09;13.00;76.10
18898;DHT22;9581;49.484;8.556;2023-04-06T10:01:39;13.30;77.30
18898;DHT22;9581;49.484;8.556;2023-04-06T10:04:17;12.50;73.00
18898;DHT22;9581;49.484;8.556;2023-04-06T10:06:47;13.10;73.60
18898;DHT22;9581;49.484;8.556;2023-04-06T10:09:18;13.60;75.30
18898;DHT22;9581;49.484;8.556;2023-04-06T10:11:49;13.60;71.50
18898;DHT22;9581;49.484;8.556;2023-04-06T10:14:16;13.80;72.40
18898;DHT22;9581;49.484;8.556;2023-04-06T10:16:43;13.90;70.20
18898;DHT22;9581;49.484;8.556;2023-04-06T10:19:13;13.70;68.40
18898;DHT22;9581;49.484;8.556;2023-04-06T10:21:43;13.70;70.30
18898;DHT22;9581;49.484;8.556;2023-04-06T10:24:12;14.00;69.60
18898;DHT22;9581;49.484;8.556;2023-04-06T10:26:39;14.30;68.70
18898;DHT22;9581;49.484;8.556;2023-04-06T10:29:08;14.20;68.80
18898;DHT22;9581;49.484;8.556;2023-04-06T10:31:40;14.40;68.10
18898;DHT22;9581;49.484;8.556;2023-04-06T10:34:08;14.40;68.60
18898;DHT22;9581;49.484;8.556;2023-04-06T10:36:35;14.80;68.90
18898;DHT22;9581;49.484;8.556;2023-04-06T10:39:04;14.60;65.40
18898;DHT22;9581;49.484;8.556;2023-04-06T10:41:33;15.00;67.30
18898;DHT22;9581;49.484;8.556;2023-04-06T10:44:00;14.90;64.90
18898;DHT22;9581;49.484;8.556;2023-04-06T10:46:30;14.90;67.30
18898;DHT22;9581;49.484;8.556;2023-04-06T10:48:57;15.60;67.20
18898;DHT22;9581;49.484;8.556;2023-04-06T10:51:26;15.40;62.80
18898;DHT22;9581;49.484;8.556;2023-04-06T10:53:55;15.30;64.50
18898;DHT22;9581;49.484;8.556;2023-04-06T10:56:23;15.50;62.80
18898;DHT22;9581;49.484;8.556;2023-04-06T10:58:53;15.70;60.90
18898;DHT22;9581;49.484;8.556;2023-04-06T11:01:22;15.60;60.40
18898;DHT22;9581;49.484;8.556;2023-04-06T11:03:53;15.90;62.60
18898;DHT22;9581;49.484;8.556;2023-04-06T11:06:21;16.00;60.00
18898;DHT22;9581;49.484;8.556;2023-04-06T11:08:48;15.80;60.00
18898;DHT22;9581;49.484;8.556;2023-04-06T11:11:16;16.10;60.80
18898;DHT22;9581;49.484;8.556;2023-04-06T11:13:46;16.20;59.30
18898;DHT22;9581;49.484;8.556;2023-04-06T11:16:14;16.40;59.50
18898;DHT22;9581;49.484;8.556;2023-04-06T11:18:53;16.40;59.10
18898;DHT22;9581;49.484;8.556;2023-04-06T11:21:31;16.00;58.10
18898;DHT22;9581;49.484;8.556;2023-04-06T11:24:07;16.50;58.60
18898;DHT22;9581;49.484;8.556;2023-04-06T11:26:37;16.50;56.40
18898;DHT22;9581;49.484;8.556;2023-04-06T11:29:05;16.20;55.20
18898;DHT22;9581;49.484;8.556;2023-04-06T11:31:37;15.80;54.50
18898;DHT22;9581;49.484;8.556;2023-04-06T11:34:10;15.80;54.80
18898;DHT22;9581;49.484;8.556;2023-04-06T11:36:40;15.80;54.10
18898;DHT22;9581;49.484;8.556;2023-04-06T11:39:08;15.50;54.50
18898;DHT22;9581;49.484;8.556;2023-04-06T11:41:35;15.80;54.70
18898;DHT22;9581;49.484;8.556;2023-04-06T11:44:02;16.00;54.50
18898;DHT22;9581;49.484;8.556;2023-04-06T11:46:29;15.60;55.40
18898;DHT22;9581;49.484;8.556;2023-04-06T11:48:58;16.00;55.80
18898;DHT22;9581;49.484;8.556;2023-04-06T11:51:27;16.10;54.10
18898;DHT22;9581;49.484;8.556;2023-04-06T11:53:55;16.10;53.10
18898;DHT22;9581;49.484;8.556;2023-04-06T11:56:26;16.10;54.80
18898;DHT22;9581;49.484;8.556;2023-04-06T11:58:58;15.60;53.20
18898;DHT22;9581;49.484;8.556;2023-04-06T12:01:26;15.90;54.40
18898;DHT22;9581;49.484;8.556;2023-04-06T12:03:53;16.00;55.10
18898;DHT22;9581;49.484;8.556;2023-04-06T12:06:20;16.00;54.10
18898;DHT22;9581;49.484;8.556;2023-04-06T12:08:48;15.70;54.00
18898;DHT22;9581;49.484;8.556;2023-04-06T12:11:15;15.60;54.70
18898;DHT22;9581;49.484;8.556;2023-04-06T12:13:42;15.70;54.50
18898;DHT22;9581;49.484;8.556;2023-04-06T12:16:09;15.90;55.00
18898;DHT22;9581;49.484;8.556;2023-04-06T12:18:36;15.90;54.70
18898;DHT22;9581;49.484;8.556;2023-04-06T12:21:03;16.00;55.00
18898;DHT22;9581;49.484;8.556;2023-04-06T12:23:31;16.10;54.30
18898;DHT22;9581;49.484;8.556;2023-04-06T12:25:59;16.10;54.00
18898;DHT22;9581;49.484;8.556;2023-04-06T12:28:27;16.00;53.70
18898;DHT22;9581;49.484;8.556;2023-04-06T12:30:54;16.20;54.50
18898;DHT22;9581;49.484;8.556;2023-04-06T12:33:22;16.00;54.10
18898;DHT22;9581;49.484;8.556;2023-04-06T12:35:49;16.00;53.40
18898;DHT22;9581;49.484;8.556;2023-04-06T12:38:16;15.80;52.90
18898;DHT22;9581;49.484;8.556;2023-04-06T12:40:43;15.90;53.10
18898;DHT22;9581;49.484;8.556;2023-04-06T12:43:11;15.90;53.50
18898;DHT22;9581;49.484;8.556;2023-04-06T12:45:39;15.90;53.70
18898;DHT22;9581;49.484;8.556;2023-04-06T12:48:07;16.10;54.40
18898;DHT22;9581;49.484;8.556;2023-04-06T12:50:33;16.30;53.50
18898;DHT22;9581;49.484;8.556;2023-04-06T12:53:00;16.10;52.80
18898;DHT22;9581;49.484;8.556;2023-04-06T12:55:30;16.40;53.00
18898;DHT22;9581;49.484;8.556;2023-04-06T12:57:59;16.60;54.30
18898;DHT22;9581;49.484;8.556;2023-04-06T13:00:28;17.10;53.80
18898;DHT22;9581;49.484;8.556;2023-04-06T13:02:56;17.10;53.60
18898;DHT22;9581;49.484;8.556;2023-04-06T13:05:23;17.10;53.60
18898;DHT22;9581;49.484;8.556;2023-04-06T13:07:50;17.20;52.80
18898;DHT22;9581;49.484;8.556;2023-04-06T13:10:17;17.40;53.20
18898;DHT22;9581;49.484;8.556;2023-04-06T13:12:44;17.90;54.00
18898;DHT22;9581;49.484;8.556;2023-04-06T13:15:11;17.50;51.60
18898;DHT22;9581;49.484;8.556;2023-04-06T13:17:39;17.20;51.40
18898;DHT22;9581;49.484;8.556;2023-04-06T13:20:07;16.80;49.80
18898;DHT22;9581;49.484;8.556;2023-04-06T13:22:34;16.30;52.50
18898;DHT22;9581;49.484;8.556;2023-04-06T13:25:02;17.20;53.70
18898;DHT22;9581;49.484;8.556;2023-04-06T13:27:28;17.30;52.20
18898;DHT22;9581;49.484;8.556;2023-04-06T13:29:59;16.70;51.40
18898;DHT22;9581;49.484;8.556;2023-04-06T13:32:26;17.10;51.70
18898;DHT22;9581;49.484;8.556;2023-04-06T13:34:55;17.00;50.80
18898;DHT22;9581;49.484;8.556;2023-04-06T13:37:22;17.70;51.60
18898;DHT22;9581;49.484;8.556;2023-04-06T13:39:50;17.60;51.30
18898;DHT22;9581;49.484;8.556;2023-04-06T13:42:16;17.80;51.60
18898;DHT22;9581;49.484;8.556;2023-04-06T13:44:43;17.60;51.20
18898;DHT22;9581;49.484;8.556;2023-04-06T13:47:12;17.50;50.80
18898;DHT22;9581;49.484;8.556;2023-04-06T13:49:39;17.50;50.10
18898;DHT22;9581;49.484;8.556;2023-04-06T13:52:07;17.60;49.20
18898;DHT22;9581;49.484;8.556;2023-04-06T13:54:35;17.40;49.10
18898;DHT22;9581;49.484;8.556;2023-04-06T13:57:02;17.40;49.60
18898;DHT22;9581;49.484;8.556;2023-04-06T13:59:32;17.20;48.90
18898;DHT22;9581;49.484;8.556;2023-04-06T14:01:59;16.90;48.50
18898;DHT22;9581;49.484;8.556;2023-04-06T14:04:26;16.80;48.20
18898;DHT22;9581;49.484;8.556;2023-04-06T14:06:53;16.90;47.70
18898;DHT22;9581;49.484;8.556;2023-04-06T14:09:21;16.60;47.20
18898;DHT22;9581;49.484;8.556;2023-04-06T14:11:48;16.90;48.60
18898;DHT22;9581;49.484;8.556;2023-04-06T14:14:16;16.80;48.50
18898;DHT22;9581;49.484;8.556;2023-04-06T14:16:43;16.70;47.40
18898;DHT22;9581;49.484;8.556;2023-04-06T14:19:10;17.10;48.40
18898;DHT22;9581;49.484;8.556;2023-04-06T14:21:38;17.10;48.00
18898;DHT22;9581;49.484;8.556;2023-04-06T14:24:06;17.50;48.50
18898;DHT22;9581;49.484;8.556;2023-04-06T14:26:34;17.50;48.50
18898;DHT22;9581;49.484;8.556;2023-04-06T14:29:01;17.20;46.60
18898;DHT22;9581;49.484;8.556;2023-04-06T14:31:29;16.90;45.10
18898;DHT22;9581;49.484;8.556;2023-04-06T14:33:56;17.10;48.20
18898;DHT22;9581;49.484;8.556;2023-04-06T14:36:23;16.50;47.20
18898;DHT22;9581;49.484;8.556;2023-04-06T14:38:52;16.60;47.60
18898;DHT22;9581;49.484;8.556;2023-04-06T14:41:22;16.70;47.90
18898;DHT22;9581;49.484;8.556;2023-04-06T14:43:51;17.10;47.80
18898;DHT22;9581;49.484;8.556;2023-04-06T14:46:18;17.30;48.20
18898;DHT22;9581;49.484;8.556;2023-04-06T14:48:47;17.20;48.30
18898;DHT22;9581;49.484;8.556;2023-04-06T14:51:14;16.70;47.50
18898;DHT22;9581;49.484;8.556;2023-04-06T14:53:42;16.60;47.50
18898;DHT22;9581;49.484;8.556;2023-04-06T14:56:09;16.60;48.50
18898;DHT22;9581;49.484;8.556;2023-04-06T14:58:35;16.30;48.00
18898;DHT22;9581;49.484;8.556;2023-04-06T15:01:04;16.10;48.70
18898;DHT22;9581;49.484;8.556;2023-04-06T15:03:31;16.00;49.30
18898;DHT22;9581;49.484;8.556;2023-04-06T15:05:58;15.80;49.60
18898;DHT22;9581;49.484;8.556;2023-04-06T15:08:31;15.70;48.70
18898;DHT22;9581;49.484;8.556;2023-04-06T15:11:13;15.60;49.50
18898;DHT22;9581;49.484;8.556;2023-04-06T15:13:41;15.60;50.30
18898;DHT22;9581;49.484;8.556;2023-04-06T15:16:09;15.10;50.90
18898;DHT22;9581;49.484;8.556;2023-04-06T15:18:36;15.30;49.70
18898;DHT22;9581;49.484;8.556;2023-04-06T15:21:03;15.30;49.70
18898;DHT22;9581;49.484;8.556;2023-04-06T15:23:31;15.20;49.60
18898;DHT22;9581;49.484;8.556;2023-04-06T15:25:59;15.40;50.20
18898;DHT22;9581;49.484;8.556;2023-04-06T15:28:26;15.30;49.70
18898;DHT22;9581;49.484;8.556;2023-04-06T15:31:16;15.20;49.30
18898;DHT22;9581;49.484;8.556;2023-04-06T15:33:46;15.20;50.40
18898;DHT22;9581;49.484;8.556;2023-04-06T15:36:22;15.40;49.30
18898;DHT22;9581;49.484;8.556;2023-04-06T15:38:50;15.20;49.30
18898;DHT22;9581;49.484;8.556;2023-04-06T15:41:19;14.90;48.70
18898;DHT22;9581;49.484;8.556;2023-04-06T15:43:51;15.10;49.20
18898;DHT22;9581;49.484;8.556;2023-04-06T15:46:20;15.00;49.70
18898;DHT22;9581;49.484;8.556;2023-04-06T15:48:47;15.00;50.40
18898;DHT22;9581;49.484;8.556;2023-04-06T15:51:14;15.10;50.40
18898;DHT22;9581;49.484;8.556;2023-04-06T15:53:42;14.90;49.70
18898;DHT22;9581;49.484;8.556;2023-04-06T15:56:09;14.60;50.40
18898;DHT22;9581;49.484;8.556;2023-04-06T15:58:36;14.80;50.30